sensor_id;sensor_type;location;lat;lon;timestamp;P1;durP1;ratioP1;P2;durP2;ratioP2
18647;SDS011;9453;50.294;18.644;2023-12-20T05:01:58;14.93;;;6.10;;
18647;SDS011;9453;50.294;18.644;2023-12-20T05:04:25;11.03;;;5.93;;
18647;SDS011;9453;50.294;18.644;2023-12-20T05:06:52;10.17;;;5.50;;
18647;SDS011;9453;50.294;18.644;2023-12-20T05:09:19;10.23;;;5.47;;
18647;SDS011;9453;50.294;18.644;2023-12-20T05:11:46;12.67;;;5.10;;
18647;SDS011;9453;50.294;18.644;2023-12-20T05:14:13;10.53;;;5.37;;
18647;SDS011;9453;50.294;18.644;2023-12-20T05:16:40;14.30;;;6.63;;
18647;SDS011;9453;50.294;18.644;2023-12-20T05:19:09;19.83;;;7.43;;
18647;SDS011;9453;50.294;18.644;2023-12-20T05:21:36;15.87;;;7.70;;
18647;SDS011;9453;50.294;18.644;2023-12-20T05:24:03;15.13;;;7.37;;
18647;SDS011;9453;50.294;18.644;2023-12-20T05:26:31;14.97;;;6.50;;
18647;SDS011;9453;50.294;18.644;2023-12-20T05:28:58;14.37;;;6.23;;
18647;SDS011;9453;50.294;18.644;2023-12-20T05:31:25;11.87;;;6.30;;
18647;SDS011;9453;50.294;18.644;2023-12-20T05:33:52;14.30;;;6.60;;
18647;SDS011;9453;50.294;18.644;2023-12-20T05:36:21;10.90;;;5.60;;
18647;SDS011;9453;50.294;18.644;2023-12-20T05:38:48;13.30;;;6.03;;
18647;SDS011;9453;50.294;18.644;2023-12-20T05:41:15;13.30;;;6.23;;
18647;SDS011;9453;50.294;18.644;2023-12-20T05:43:42;10.40;;;5.63;;
18647;SDS011;9453;50.294;18.644;2023-12-20T05:46:09;10.70;;;6.03;;
18647;SDS011;9453;50.294;18.644;2023-12-20T05:48:37;12.37;;;5.60;;
18647;SDS011;9453;50.294;18.644;2023-12-20T05:51:04;13.77;;;6.50;;
18647;SDS011;9453;50.294;18.644;2023-12-20T05:53:33;11.47;;;6.37;;
18647;SDS011;9453;50.294;18.644;2023-12-20T05:56:00;13.27;;;7.17;;
18647;SDS011;9453;50.294;18.644;2023-12-20T05:58:26;18.20;;;8.00;;
18647;SDS011;9453;50.294;18.644;2023-12-20T06:00:54;15.67;;;7.93;;
18647;SDS011;9453;50.294;18.644;2023-12-20T06:03:22;18.60;;;7.97;;
18647;SDS011;9453;50.294;18.644;2023-12-20T06:05:49;13.70;;;7.03;;
18647;SDS011;9453;50.294;18.644;2023-12-20T06:08:17;20.43;;;8.50;;
18647;SDS011;9453;50.294;18.644;2023-12-20T06:10:45;19.27;;;8.50;;
18647;SDS011;9453;50.294;18.644;2023-12-20T06:13:12;16.17;;;7.93;;
18647;SDS011;9453;50.294;18.644;2023-12-20T06:15:39;17.73;;;7.93;;
18647;SDS011;9453;50.294;18.644;2023-12-20T06:18:06;16.33;;;8.50;;
18647;SDS011;9453;50.294;18.644;2023-12-20T06:20:33;17.03;;;7.60;;
18647;SDS011;9453;50.294;18.644;2023-12-20T06:23:01;15.50;;;6.23;;
18647;SDS011;9453;50.294;18.644;2023-12-20T06:25:27;16.37;;;7.50;;
18647;SDS011;9453;50.294;18.644;2023-12-20T06:27:56;13.57;;;6.73;;
18647;SDS011;9453;50.294;18.644;2023-12-20T06:30:23;15.63;;;6.60;;
18647;SDS011;9453;50.294;18.644;2023-12-20T06:32:50;15.37;;;6.10;;
18647;SDS011;9453;50.294;18.644;2023-12-20T06:35:18;14.27;;;7.23;;
18647;SDS011;9453;50.294;18.644;2023-12-20T06:37:44;17.40;;;8.33;;
18647;SDS011;9453;50.294;18.644;2023-12-20T06:40:11;16.70;;;7.60;;
18647;SDS011;9453;50.294;18.644;2023-12-20T06:42:38;15.80;;;7.63;;
18647;SDS011;9453;50.294;18.644;2023-12-20T06:45:07;16.17;;;7.20;;
18647;SDS011;9453;50.294;18.644;2023-12-20T06:47:35;13.57;;;6.70;;
18647;SDS011;9453;50.294;18.644;2023-12-20T06:50:02;13.13;;;6.70;;
18647;SDS011;9453;50.294;18.644;2023-12-20T06:52:33;14.63;;;7.07;;
18647;SDS011;9453;50.294;18.644;2023-12-20T06:55:00;13.40;;;6.53;;
18647;SDS011;9453;50.294;18.644;2023-12-20T06:57:27;16.60;;;7.23;;
18647;SDS011;9453;50.294;18.644;2023-12-20T06:59:54;11.97;;;6.23;;
18647;SDS011;9453;50.294;18.644;2023-12-20T07:02:22;17.27;;;7.47;;
18647;SDS011;9453;50.294;18.644;2023-12-20T07:04:49;12.93;;;6.87;;
18647;SDS011;9453;50.294;18.644;2023-12-20T07:07:16;14.13;;;7.17;;
18647;SDS011;9453;50.294;18.644;2023-12-20T07:09:43;13.07;;;6.10;;
18647;SDS011;9453;50.294;18.644;2023-12-20T07:12:09;16.33;;;7.27;;
18647;SDS011;9453;50.294;18.644;2023-12-20T07:14:36;15.80;;;7.13;;
18647;SDS011;9453;50.294;18.644;2023-12-20T07:17:03;15.00;;;7.13;;
18647;SDS011;9453;50.294;18.644;2023-12-20T07:19:34;16.40;;;7.07;;
18647;SDS011;9453;50.294;18.644;2023-12-20T07:22:01;15.90;;;6.63;;
18647;SDS011;9453;50.294;18.644;2023-12-20T07:24:28;16.67;;;7.30;;
18647;SDS011;9453;50.294;18.644;2023-12-20T07:26:56;13.40;;;6.73;;
18647;SDS011;9453;50.294;18.644;2023-12-20T07:29:23;16.47;;;7.13;;
18647;SDS011;9453;50.294;18.644;2023-12-20T07:31:50;11.93;;;6.57;;
18647;SDS011;9453;50.294;18.644;2023-12-20T07:34:17;17.77;;;7.23;;
18647;SDS011;9453;50.294;18.644;2023-12-20T07:36:45;14.50;;;7.10;;
18647;SDS011;9453;50.294;18.644;2023-12-20T07:39:12;15.60;;;7.00;;
18647;SDS011;9453;50.294;18.644;2023-12-20T07:41:40;15.47;;;7.23;;
18647;SDS011;9453;50.294;18.644;2023-12-20T07:44:07;14.77;;;7.13;;
18647;SDS011;9453;50.294;18.644;2023-12-20T07:46:33;12.37;;;6.43;;
18647;SDS011;9453;50.294;18.644;2023-12-20T07:49:00;13.53;;;6.47;;
18647;SDS011;9453;50.294;18.644;2023-12-20T07:51:27;14.23;;;7.20;;
18647;SDS011;9453;50.294;18.644;2023-12-20T07:53:55;13.77;;;7.00;;
18647;SDS011;9453;50.294;18.644;2023-12-20T07:56:23;14.50;;;6.33;;
18647;SDS011;9453;50.294;18.644;2023-12-20T07:58:50;17.07;;;7.77;;
18647;SDS011;9453;50.294;18.644;2023-12-20T08:01:17;13.87;;;7.00;;
18647;SDS011;9453;50.294;18.644;2023-12-20T08:03:44;15.53;;;6.63;;
18647;SDS011;9453;50.294;18.644;2023-12-20T08:06:11;17.10;;;7.33;;
18647;SDS011;9453;50.294;18.644;2023-12-20T08:08:38;17.37;;;7.53;;
18647;SDS011;9453;50.294;18.644;2023-12-20T08:11:07;16.27;;;7.33;;
18647;SDS011;9453;50.294;18.644;2023-12-20T08:13:33;14.87;;;7.50;;
18647;SDS011;9453;50.294;18.644;2023-12-20T08:16:00;13.97;;;7.43;;
18647;SDS011;9453;50.294;18.644;2023-12-20T08:18:29;17.43;;;8.27;;
18647;SDS011;9453;50.294;18.644;2023-12-20T08:20:56;16.00;;;8.00;;
18647;SDS011;9453;50.294;18.644;2023-12-20T08:23:26;16.07;;;8.10;;
18647;SDS011;9453;50.294;18.644;2023-12-20T08:25:53;17.77;;;8.20;;
18647;SDS011;9453;50.294;18.644;2023-12-20T08:28:26;17.60;;;7.87;;
18647;SDS011;9453;50.294;18.644;2023-12-20T08:30:53;15.67;;;7.80;;
18647;SDS011;9453;50.294;18.644;2023-12-20T08:33:20;17.43;;;8.13;;
18647;SDS011;9453;50.294;18.644;2023-12-20T08:35:47;12.93;;;7.27;;
18647;SDS011;9453;50.294;18.644;2023-12-20T08:38:14;15.03;;;8.00;;
18647;SDS011;9453;50.294;18.644;2023-12-20T08:40:44;13.33;;;7.63;;
18647;SDS011;9453;50.294;18.644;2023-12-20T08:43:12;14.43;;;7.87;;
18647;SDS011;9453;50.294;18.644;2023-12-20T08:45:40;17.47;;;8.27;;
18647;SDS011;9453;50.294;18.644;2023-12-20T08:48:07;16.20;;;7.87;;
18647;SDS011;9453;50.294;18.644;2023-12-20T08:50:34;18.57;;;7.93;;
18647;SDS011;9453;50.294;18.644;2023-12-20T08:53:01;17.50;;;8.53;;
18647;SDS011;9453;50.294;18.644;2023-12-20T08:55:28;24.57;;;8.87;;
18647;SDS011;9453;50.294;18.644;2023-12-20T08:57:56;16.17;;;8.93;;
18647;SDS011;9453;50.294;18.644;2023-12-20T09:00:23;18.73;;;8.67;;
18647;SDS011;9453;50.294;18.644;2023-12-20T09:02:54;17.60;;;9.07;;
18647;SDS011;9453;50.294;18.644;2023-12-20T09:05:22;15.30;;;6.77;;
18647;SDS011;9453;50.294;18.644;2023-12-20T09:07:49;18.33;;;8.40;;
18647;SDS011;9453;50.294;18.644;2023-12-20T09:10:16;17.17;;;8.93;;
18647;SDS011;9453;50.294;18.644;2023-12-20T09:12:47;17.00;;;8.20;;
18647;SDS011;9453;50.294;18.644;2023-12-20T09:15:14;17.23;;;8.47;;
18647;SDS011;9453;50.294;18.644;2023-12-20T09:17:41;15.77;;;8.43;;
18647;SDS011;9453;50.294;18.644;2023-12-20T09:20:10;14.40;;;8.30;;
18647;SDS011;9453;50.294;18.644;2023-12-20T09:22:41;17.27;;;8.63;;
18647;SDS011;9453;50.294;18.644;2023-12-20T09:25:09;17.77;;;8.00;;
18647;SDS011;9453;50.294;18.644;2023-12-20T09:27:37;15.20;;;8.83;;
18647;SDS011;9453;50.294;18.644;2023-12-20T09:30:05;18.57;;;8.83;;
18647;SDS011;9453;50.294;18.644;2023-12-20T09:32:33;18.03;;;9.10;;
18647;SDS011;9453;50.294;18.644;2023-12-20T09:35:00;18.23;;;9.37;;
18647;SDS011;9453;50.294;18.644;2023-12-20T09:37:29;22.40;;;9.23;;
18647;SDS011;9453;50.294;18.644;2023-12-20T09:39:56;16.80;;;8.70;;
18647;SDS011;9453;50.294;18.644;2023-12-20T09:42:27;20.20;;;8.73;;
18647;SDS011;9453;50.294;18.644;2023-12-20T09:45:04;19.90;;;8.73;;
18647;SDS011;9453;50.294;18.644;2023-12-20T09:47:35;15.60;;;7.80;;
18647;SDS011;9453;50.294;18.644;2023-12-20T09:50:03;16.67;;;7.87;;
18647;SDS011;9453;50.294;18.644;2023-12-20T09:52:33;14.03;;;7.63;;
18647;SDS011;9453;50.294;18.644;2023-12-20T09:55:02;17.13;;;8.00;;
18647;SDS011;9453;50.294;18.644;2023-12-20T09:57:31;14.70;;;8.27;;
18647;SDS011;9453;50.294;18.644;2023-12-20T09:59:58;20.30;;;8.43;;
18647;SDS011;9453;50.294;18.644;2023-12-20T10:02:25;19.13;;;7.73;;
18647;SDS011;9453;50.294;18.644;2023-12-20T10:04:53;15.43;;;7.67;;
18647;SDS011;9453;50.294;18.644;2023-12-20T10:07:22;19.33;;;8.33;;
18647;SDS011;9453;50.294;18.644;2023-12-20T10:09:51;15.23;;;7.87;;
18647;SDS011;9453;50.294;18.644;2023-12-20T10:12:21;19.63;;;8.10;;
18647;SDS011;9453;50.294;18.644;2023-12-20T10:14:48;18.63;;;9.47;;
18647;SDS011;9453;50.294;18.644;2023-12-20T10:17:18;16.37;;;7.77;;
18647;SDS011;9453;50.294;18.644;2023-12-20T10:19:45;20.60;;;9.03;;
18647;SDS011;9453;50.294;18.644;2023-12-20T10:24:37;16.07;;;7.87;;
18647;SDS011;9453;50.294;18.644;2023-12-20T10:27:06;20.40;;;9.40;;
18647;SDS011;9453;50.294;18.644;2023-12-20T10:29:34;17.40;;;8.97;;
18647;SDS011;9453;50.294;18.644;2023-12-20T10:32:23;17.93;;;8.83;;
18647;SDS011;9453;50.294;18.644;2023-12-20T10:34:52;18.93;;;8.90;;
18647;SDS011;9453;50.294;18.644;2023-12-20T10:37:20;24.07;;;9.87;;
18647;SDS011;9453;50.294;18.644;2023-12-20T10:39:49;20.00;;;9.17;;
18647;SDS011;9453;50.294;18.644;2023-12-20T10:42:23;18.23;;;8.73;;
18647;SDS011;9453;50.294;18.644;2023-12-20T10:44:52;18.83;;;8.57;;
18647;SDS011;9453;50.294;18.644;2023-12-20T10:47:19;20.30;;;8.43;;
18647;SDS011;9453;50.294;18.644;2023-12-20T10:49:47;16.67;;;8.43;;
18647;SDS011;9453;50.294;18.644;2023-12-20T10:52:14;14.53;;;7.23;;
18647;SDS011;9453;50.294;18.644;2023-12-20T10:54:43;16.40;;;8.13;;
18647;SDS011;9453;50.294;18.644;2023-12-20T10:57:11;15.23;;;7.87;;
18647;SDS011;9453;50.294;18.644;2023-12-20T10:59:39;16.23;;;7.67;;
18647;SDS011;9453;50.294;18.644;2023-12-20T11:08:08;11.87;;;7.27;;
18647;SDS011;9453;50.294;18.644;2023-12-20T11:11:02;17.47;;;6.73;;
18647;SDS011;9453;50.294;18.644;2023-12-20T11:13:56;13.93;;;6.80;;
18647;SDS011;9453;50.294;18.644;2023-12-20T11:16:45;12.77;;;6.73;;
18647;SDS011;9453;50.294;18.644;2023-12-20T11:22:37;12.30;;;5.63;;
18647;SDS011;9453;50.294;18.644;2023-12-20T11:25:07;13.73;;;6.73;;
18647;SDS011;9453;50.294;18.644;2023-12-20T11:27:34;18.03;;;7.20;;
18647;SDS011;9453;50.294;18.644;2023-12-20T11:30:02;15.07;;;6.80;;
18647;SDS011;9453;50.294;18.644;2023-12-20T11:32:35;15.83;;;7.67;;
18647;SDS011;9453;50.294;18.644;2023-12-20T11:35:16;14.13;;;7.23;;
18647;SDS011;9453;50.294;18.644;2023-12-20T11:37:45;16.70;;;6.97;;
18647;SDS011;9453;50.294;18.644;2023-12-20T11:40:14;9.93;;;5.77;;
18647;SDS011;9453;50.294;18.644;2023-12-20T11:42:42;11.57;;;4.80;;
18647;SDS011;9453;50.294;18.644;2023-12-20T11:45:10;9.80;;;4.73;;
18647;SDS011;9453;50.294;18.644;2023-12-20T11:47:41;10.87;;;4.87;;
18647;SDS011;9453;50.294;18.644;2023-12-20T11:50:09;18.27;;;6.17;;
18647;SDS011;9453;50.294;18.644;2023-12-20T11:52:36;10.80;;;5.07;;
18647;SDS011;9453;50.294;18.644;2023-12-20T11:55:03;9.70;;;4.70;;
18647;SDS011;9453;50.294;18.644;2023-12-20T11:57:31;8.53;;;5.00;;
18647;SDS011;9453;50.294;18.644;2023-12-20T11:59:58;7.87;;;4.37;;
18647;SDS011;9453;50.294;18.644;2023-12-20T12:02:25;9.17;;;4.37;;
18647;SDS011;9453;50.294;18.644;2023-12-20T12:04:54;9.57;;;5.10;;
18647;SDS011;9453;50.294;18.644;2023-12-20T12:07:21;12.17;;;6.13;;
18647;SDS011;9453;50.294;18.644;2023-12-20T12:09:48;15.00;;;5.77;;
18647;SDS011;9453;50.294;18.644;2023-12-20T12:12:17;14.10;;;5.60;;
18647;SDS011;9453;50.294;18.644;2023-12-20T12:14:44;14.73;;;6.00;;
18647;SDS011;9453;50.294;18.644;2023-12-20T12:17:11;13.27;;;6.27;;
18647;SDS011;9453;50.294;18.644;2023-12-20T12:19:39;12.23;;;6.07;;
18647;SDS011;9453;50.294;18.644;2023-12-20T12:22:12;11.83;;;5.47;;
18647;SDS011;9453;50.294;18.644;2023-12-20T12:24:45;10.27;;;5.10;;
18647;SDS011;9453;50.294;18.644;2023-12-20T12:27:17;10.60;;;5.97;;
18647;SDS011;9453;50.294;18.644;2023-12-20T12:29:59;12.30;;;5.93;;
18647;SDS011;9453;50.294;18.644;2023-12-20T12:32:38;13.77;;;5.77;;
18647;SDS011;9453;50.294;18.644;2023-12-20T12:35:06;13.20;;;6.13;;
18647;SDS011;9453;50.294;18.644;2023-12-20T12:37:37;13.03;;;4.80;;
18647;SDS011;9453;50.294;18.644;2023-12-20T12:40:06;12.73;;;5.00;;
18647;SDS011;9453;50.294;18.644;2023-12-20T12:42:35;10.63;;;4.87;;
18647;SDS011;9453;50.294;18.644;2023-12-20T12:45:03;9.47;;;4.17;;
18647;SDS011;9453;50.294;18.644;2023-12-20T12:47:31;9.73;;;4.87;;
18647;SDS011;9453;50.294;18.644;2023-12-20T12:49:58;11.83;;;5.17;;
18647;SDS011;9453;50.294;18.644;2023-12-20T12:52:25;10.47;;;4.73;;
18647;SDS011;9453;50.294;18.644;2023-12-20T12:54:54;11.10;;;4.63;;
18647;SDS011;9453;50.294;18.644;2023-12-20T12:57:21;15.13;;;5.30;;
18647;SDS011;9453;50.294;18.644;2023-12-20T12:59:49;8.77;;;4.70;;
18647;SDS011;9453;50.294;18.644;2023-12-20T13:02:16;15.47;;;5.90;;
18647;SDS011;9453;50.294;18.644;2023-12-20T13:04:43;13.23;;;6.17;;
18647;SDS011;9453;50.294;18.644;2023-12-20T13:07:11;17.23;;;7.30;;
18647;SDS011;9453;50.294;18.644;2023-12-20T13:09:38;15.27;;;6.40;;
18647;SDS011;9453;50.294;18.644;2023-12-20T13:12:07;14.97;;;6.73;;
18647;SDS011;9453;50.294;18.644;2023-12-20T13:14:35;15.80;;;6.40;;
18647;SDS011;9453;50.294;18.644;2023-12-20T13:17:03;17.60;;;6.60;;
18647;SDS011;9453;50.294;18.644;2023-12-20T13:19:31;18.80;;;6.97;;
18647;SDS011;9453;50.294;18.644;2023-12-20T13:21:58;18.50;;;7.03;;
18647;SDS011;9453;50.294;18.644;2023-12-20T13:24:25;17.77;;;7.57;;
18647;SDS011;9453;50.294;18.644;2023-12-20T13:26:52;17.93;;;7.50;;
18647;SDS011;9453;50.294;18.644;2023-12-20T13:29:20;18.50;;;8.07;;
18647;SDS011;9453;50.294;18.644;2023-12-20T13:31:48;11.53;;;6.03;;
18647;SDS011;9453;50.294;18.644;2023-12-20T13:34:15;12.97;;;6.20;;
18647;SDS011;9453;50.294;18.644;2023-12-20T13:36:43;11.47;;;5.73;;
18647;SDS011;9453;50.294;18.644;2023-12-20T13:39:12;15.13;;;5.57;;
18647;SDS011;9453;50.294;18.644;2023-12-20T13:41:39;11.10;;;5.83;;
18647;SDS011;9453;50.294;18.644;2023-12-20T13:44:07;11.17;;;4.83;;
18647;SDS011;9453;50.294;18.644;2023-12-20T13:49:39;13.97;;;6.03;;
18647;SDS011;9453;50.294;18.644;2023-12-20T13:52:15;18.77;;;6.70;;
18647;SDS011;9453;50.294;18.644;2023-12-20T13:54:51;15.00;;;6.97;;
18647;SDS011;9453;50.294;18.644;2023-12-20T13:57:50;15.07;;;6.07;;
18647;SDS011;9453;50.294;18.644;2023-12-20T14:00:31;16.87;;;6.67;;
18647;SDS011;9453;50.294;18.644;2023-12-20T14:03:00;14.07;;;6.13;;
18647;SDS011;9453;50.294;18.644;2023-12-20T14:05:27;14.83;;;6.10;;
18647;SDS011;9453;50.294;18.644;2023-12-20T14:07:59;15.90;;;6.40;;
18647;SDS011;9453;50.294;18.644;2023-12-20T14:10:32;16.07;;;6.33;;
18647;SDS011;9453;50.294;18.644;2023-12-20T14:12:59;15.10;;;6.50;;
18647;SDS011;9453;50.294;18.644;2023-12-20T14:15:26;17.70;;;7.77;;
18647;SDS011;9453;50.294;18.644;2023-12-20T14:17:53;16.33;;;6.77;;
18647;SDS011;9453;50.294;18.644;2023-12-20T14:20:22;17.47;;;6.97;;
18647;SDS011;9453;50.294;18.644;2023-12-20T14:29:35;14.80;;;6.30;;
18647;SDS011;9453;50.294;18.644;2023-12-20T14:32:03;13.30;;;6.20;;
18647;SDS011;9453;50.294;18.644;2023-12-20T14:37:57;21.33;;;7.03;;
18647;SDS011;9453;50.294;18.644;2023-12-20T14:40:24;15.43;;;7.57;;
18647;SDS011;9453;50.294;18.644;2023-12-20T14:42:51;20.90;;;8.30;;
18647;SDS011;9453;50.294;18.644;2023-12-20T14:45:18;21.87;;;8.03;;
18647;SDS011;9453;50.294;18.644;2023-12-20T14:47:45;19.37;;;7.93;;
18647;SDS011;9453;50.294;18.644;2023-12-20T14:50:13;19.40;;;7.60;;
18647;SDS011;9453;50.294;18.644;2023-12-20T14:52:43;21.23;;;7.33;;
18647;SDS011;9453;50.294;18.644;2023-12-20T14:55:13;16.03;;;6.53;;
18647;SDS011;9453;50.294;18.644;2023-12-20T14:57:40;22.23;;;7.07;;
18647;SDS011;9453;50.294;18.644;2023-12-20T15:02:38;15.60;;;6.07;;
18647;SDS011;9453;50.294;18.644;2023-12-20T15:05:05;11.70;;;5.17;;
18647;SDS011;9453;50.294;18.644;2023-12-20T15:07:33;13.67;;;4.70;;
18647;SDS011;9453;50.294;18.644;2023-12-20T15:10:01;12.90;;;5.30;;
18647;SDS011;9453;50.294;18.644;2023-12-20T15:12:30;10.57;;;5.80;;
18647;SDS011;9453;50.294;18.644;2023-12-20T15:14:59;13.47;;;5.17;;
18647;SDS011;9453;50.294;18.644;2023-12-20T15:17:26;10.17;;;4.80;;
18647;SDS011;9453;50.294;18.644;2023-12-20T15:19:53;14.27;;;5.97;;
18647;SDS011;9453;50.294;18.644;2023-12-20T15:22:20;12.43;;;5.00;;
18647;SDS011;9453;50.294;18.644;2023-12-20T15:24:47;17.43;;;6.03;;
18647;SDS011;9453;50.294;18.644;2023-12-20T15:27:19;14.97;;;5.83;;
18647;SDS011;9453;50.294;18.644;2023-12-20T15:29:47;14.77;;;5.97;;
18647;SDS011;9453;50.294;18.644;2023-12-20T15:32:16;12.87;;;5.37;;
18647;SDS011;9453;50.294;18.644;2023-12-20T15:34:45;8.77;;;4.47;;
18647;SDS011;9453;50.294;18.644;2023-12-20T15:37:12;14.27;;;6.40;;
18647;SDS011;9453;50.294;18.644;2023-12-20T15:42:14;20.37;;;7.93;;
18647;SDS011;9453;50.294;18.644;2023-12-20T15:44:42;19.30;;;8.40;;
18647;SDS011;9453;50.294;18.644;2023-12-20T15:47:10;24.73;;;9.57;;
18647;SDS011;9453;50.294;18.644;2023-12-20T15:49:42;21.03;;;9.83;;
18647;SDS011;9453;50.294;18.644;2023-12-20T15:52:28;24.30;;;9.10;;
18647;SDS011;9453;50.294;18.644;2023-12-20T15:55:11;18.73;;;9.27;;
18647;SDS011;9453;50.294;18.644;2023-12-20T15:57:59;22.57;;;8.50;;
18647;SDS011;9453;50.294;18.644;2023-12-20T16:00:38;21.03;;;9.50;;
18647;SDS011;9453;50.294;18.644;2023-12-20T16:03:24;26.77;;;10.63;;
18647;SDS011;9453;50.294;18.644;2023-12-20T16:05:51;24.00;;;10.27;;
18647;SDS011;9453;50.294;18.644;2023-12-20T16:08:18;26.07;;;11.10;;
18647;SDS011;9453;50.294;18.644;2023-12-20T16:10:45;26.67;;;12.00;;
18647;SDS011;9453;50.294;18.644;2023-12-20T16:13:12;29.97;;;12.07;;
18647;SDS011;9453;50.294;18.644;2023-12-20T16:15:39;30.93;;;11.63;;
18647;SDS011;9453;50.294;18.644;2023-12-20T16:18:07;28.10;;;11.37;;
18647;SDS011;9453;50.294;18.644;2023-12-20T16:20:37;25.37;;;11.53;;
18647;SDS011;9453;50.294;18.644;2023-12-20T16:23:04;25.37;;;10.97;;
18647;SDS011;9453;50.294;18.644;2023-12-20T16:25:31;30.00;;;12.37;;
18647;SDS011;9453;50.294;18.644;2023-12-20T16:28:02;28.43;;;11.80;;
18647;SDS011;9453;50.294;18.644;2023-12-20T16:30:42;30.90;;;11.97;;
18647;SDS011;9453;50.294;18.644;2023-12-20T16:33:09;24.20;;;11.10;;
18647;SDS011;9453;50.294;18.644;2023-12-20T16:35:39;28.03;;;11.43;;
18647;SDS011;9453;50.294;18.644;2023-12-20T16:38:05;27.23;;;12.03;;
18647;SDS011;9453;50.294;18.644;2023-12-20T16:40:33;25.57;;;11.33;;
18647;SDS011;9453;50.294;18.644;2023-12-20T16:43:00;30.77;;;11.73;;
18647;SDS011;9453;50.294;18.644;2023-12-20T16:45:28;26.67;;;11.20;;
18647;SDS011;9453;50.294;18.644;2023-12-20T16:47:55;26.37;;;12.30;;
18647;SDS011;9453;50.294;18.644;2023-12-20T16:50:22;32.87;;;12.57;;
18647;SDS011;9453;50.294;18.644;2023-12-20T16:52:52;32.57;;;13.87;;
18647;SDS011;9453;50.294;18.644;2023-12-20T16:55:19;31.10;;;13.83;;
18647;SDS011;9453;50.294;18.644;2023-12-20T16:57:46;35.73;;;13.10;;
18647;SDS011;9453;50.294;18.644;2023-12-20T17:00:15;35.90;;;13.30;;
18647;SDS011;9453;50.294;18.644;2023-12-20T17:02:48;34.67;;;14.10;;
18647;SDS011;9453;50.294;18.644;2023-12-20T17:05:16;38.23;;;14.33;;
18647;SDS011;9453;50.294;18.644;2023-12-20T17:07:44;35.00;;;13.00;;
18647;SDS011;9453;50.294;18.644;2023-12-20T17:10:19;32.10;;;13.37;;
18647;SDS011;9453;50.294;18.644;2023-12-20T17:12:50;30.50;;;11.67;;
18647;SDS011;9453;50.294;18.644;2023-12-20T17:15:17;31.13;;;10.97;;
18647;SDS011;9453;50.294;18.644;2023-12-20T17:17:52;29.20;;;11.47;;
18647;SDS011;9453;50.294;18.644;2023-12-20T17:20:22;26.17;;;11.13;;
18647;SDS011;9453;50.294;18.644;2023-12-20T17:25:25;27.27;;;10.50;;
18647;SDS011;9453;50.294;18.644;2023-12-20T17:28:27;28.53;;;10.53;;
18647;SDS011;9453;50.294;18.644;2023-12-20T17:30:58;28.73;;;10.60;;
18647;SDS011;9453;50.294;18.644;2023-12-20T17:33:25;23.77;;;9.07;;
18647;SDS011;9453;50.294;18.644;2023-12-20T17:35:54;27.60;;;10.70;;
18647;SDS011;9453;50.294;18.644;2023-12-20T17:38:21;21.33;;;8.83;;
18647;SDS011;9453;50.294;18.644;2023-12-20T17:40:50;22.13;;;9.10;;
18647;SDS011;9453;50.294;18.644;2023-12-20T17:43:19;22.00;;;8.87;;
18647;SDS011;9453;50.294;18.644;2023-12-20T17:45:46;21.17;;;8.87;;
18647;SDS011;9453;50.294;18.644;2023-12-20T17:48:14;19.60;;;8.70;;
18647;SDS011;9453;50.294;18.644;2023-12-20T17:50:42;27.60;;;10.00;;
18647;SDS011;9453;50.294;18.644;2023-12-20T17:53:09;23.97;;;10.13;;
18647;SDS011;9453;50.294;18.644;2023-12-20T17:55:38;22.50;;;9.63;;
18647;SDS011;9453;50.294;18.644;2023-12-20T17:58:08;24.47;;;9.60;;
18647;SDS011;9453;50.294;18.644;2023-12-20T18:00:37;22.67;;;8.80;;
18647;SDS011;9453;50.294;18.644;2023-12-20T18:03:04;20.87;;;8.73;;
18647;SDS011;9453;50.294;18.644;2023-12-20T18:05:31;19.77;;;9.07;;
18647;SDS011;9453;50.294;18.644;2023-12-20T18:07:58;24.60;;;9.73;;
18647;SDS011;9453;50.294;18.644;2023-12-20T18:10:28;19.30;;;9.33;;
18647;SDS011;9453;50.294;18.644;2023-12-20T18:12:55;26.33;;;10.00;;
18647;SDS011;9453;50.294;18.644;2023-12-20T18:15:24;22.33;;;8.60;;
18647;SDS011;9453;50.294;18.644;2023-12-20T18:17:50;19.70;;;8.07;;
18647;SDS011;9453;50.294;18.644;2023-12-20T18:20:17;20.40;;;8.77;;
18647;SDS011;9453;50.294;18.644;2023-12-20T18:22:44;22.83;;;8.93;;
18647;SDS011;9453;50.294;18.644;2023-12-20T18:25:11;20.77;;;8.57;;
18647;SDS011;9453;50.294;18.644;2023-12-20T18:30:45;22.17;;;8.13;;
18647;SDS011;9453;50.294;18.644;2023-12-20T18:33:12;21.37;;;8.80;;
18647;SDS011;9453;50.294;18.644;2023-12-20T18:35:39;17.03;;;6.77;;
18647;SDS011;9453;50.294;18.644;2023-12-20T18:38:08;16.13;;;7.03;;
18647;SDS011;9453;50.294;18.644;2023-12-20T18:40:35;13.00;;;5.97;;
18647;SDS011;9453;50.294;18.644;2023-12-20T18:43:04;16.70;;;6.07;;
18647;SDS011;9453;50.294;18.644;2023-12-20T18:45:31;16.73;;;6.23;;
18647;SDS011;9453;50.294;18.644;2023-12-20T18:48:00;14.27;;;5.67;;
18647;SDS011;9453;50.294;18.644;2023-12-20T18:50:27;15.00;;;5.60;;
18647;SDS011;9453;50.294;18.644;2023-12-20T18:52:54;16.17;;;6.40;;
18647;SDS011;9453;50.294;18.644;2023-12-20T18:55:21;15.80;;;6.20;;
18647;SDS011;9453;50.294;18.644;2023-12-20T18:57:48;12.27;;;5.40;;
18647;SDS011;9453;50.294;18.644;2023-12-20T19:00:15;15.80;;;5.63;;
18647;SDS011;9453;50.294;18.644;2023-12-20T19:02:42;14.00;;;5.17;;
18647;SDS011;9453;50.294;18.644;2023-12-20T19:05:26;13.40;;;4.83;;
18647;SDS011;9453;50.294;18.644;2023-12-20T19:07:53;13.13;;;5.67;;
18647;SDS011;9453;50.294;18.644;2023-12-20T19:10:20;11.43;;;5.33;;
18647;SDS011;9453;50.294;18.644;2023-12-20T19:12:47;10.47;;;4.77;;
18647;SDS011;9453;50.294;18.644;2023-12-20T19:15:14;13.87;;;5.40;;
18647;SDS011;9453;50.294;18.644;2023-12-20T19:17:41;13.17;;;4.87;;
18647;SDS011;9453;50.294;18.644;2023-12-20T19:20:08;11.20;;;4.80;;
18647;SDS011;9453;50.294;18.644;2023-12-20T19:22:37;12.73;;;4.97;;
18647;SDS011;9453;50.294;18.644;2023-12-20T19:25:04;11.60;;;4.80;;
18647;SDS011;9453;50.294;18.644;2023-12-20T19:27:38;12.70;;;4.87;;
18647;SDS011;9453;50.294;18.644;2023-12-20T19:30:05;12.00;;;4.80;;
18647;SDS011;9453;50.294;18.644;2023-12-20T19:32:33;12.37;;;4.30;;
18647;SDS011;9453;50.294;18.644;2023-12-20T19:35:00;14.33;;;4.73;;
18647;SDS011;9453;50.294;18.644;2023-12-20T19:37:27;10.83;;;4.37;;
18647;SDS011;9453;50.294;18.644;2023-12-20T19:39:56;9.13;;;3.73;;
18647;SDS011;9453;50.294;18.644;2023-12-20T19:42:23;9.73;;;3.90;;
18647;SDS011;9453;50.294;18.644;2023-12-20T19:44:50;11.30;;;3.60;;
18647;SDS011;9453;50.294;18.644;2023-12-20T19:47:18;12.17;;;4.20;;
18647;SDS011;9453;50.294;18.644;2023-12-20T19:52:13;11.53;;;4.70;;
18647;SDS011;9453;50.294;18.644;2023-12-20T19:54:40;11.53;;;4.30;;
18647;SDS011;9453;50.294;18.644;2023-12-20T19:57:10;10.10;;;3.83;;
18647;SDS011;9453;50.294;18.644;2023-12-20T19:59:37;14.37;;;3.80;;
18647;SDS011;9453;50.294;18.644;2023-12-20T20:02:04;11.30;;;4.40;;
18647;SDS011;9453;50.294;18.644;2023-12-20T20:04:31;7.40;;;3.47;;
18647;SDS011;9453;50.294;18.644;2023-12-20T20:07:00;8.67;;;3.43;;
18647;SDS011;9453;50.294;18.644;2023-12-20T20:09:31;12.73;;;4.43;;
18647;SDS011;9453;50.294;18.644;2023-12-20T20:11:58;14.67;;;5.47;;
18647;SDS011;9453;50.294;18.644;2023-12-20T20:14:26;11.53;;;5.17;;
18647;SDS011;9453;50.294;18.644;2023-12-20T20:16:54;14.03;;;6.00;;
18647;SDS011;9453;50.294;18.644;2023-12-20T20:19:22;15.93;;;5.90;;
18647;SDS011;9453;50.294;18.644;2023-12-20T20:21:50;11.07;;;5.20;;